首页
METAR-TAF:

METAR-TAF

机场 :

扬斯敦 / Warren, 俄亥俄州, 美国

纬度: 41-15-16N, 经度: 080-40-26W, 海拔: 364米

当前天气观测

该预报发布于15分钟前的15:51 UTC
风速8节,风向东南
温度 3°C
湿度 48%
气压 1020 hPa
能見度: 16.1公里
多云层高于5000英尺
阴天层高于6500英尺

METAR: KYNG 131551Z 14008KT 10SM BKN050 OVC065 03/M07 A3011 RMK AO2 SLP206 T00281067

时间: 11:06 (16:06 UTC)

预报

该预报发布于4小时和42分钟前的11:24 UTC
预报有效从13日的 12点(UTC)到 14日的 12点(UTC)
风速8节,风向东南
能見度: 10公里
少量云层高于25000英尺
从 13日的 1900点(UTC)
风速5节,风向东南
能見度: 10公里
多云层高于3000英尺
从 13日的 2200点(UTC)
风速5节,风向东南
能見度: 10公里
阴天层高于1500英尺
从 14日的 0000点(UTC)
风速5节,风向东转东南
能見度: 10公里
阴天层高于800英尺
从 14日的 0400点(UTC)
风速5节,风向东南
能見度: 3.2公里
散云层高于300英尺
阴天层高于800英尺
小雨

TAF: KYNG 131124Z 1312/1412 13008KT P6SM FEW250 FM131900 14005KT P6SM BKN030 FM132200 13005KT P6SM OVC015 FM140000 12005KT P6SM OVC008 FM140400 13005KT 2SM -RA SCT003 OVC008

超过4000个机场的气象观测和天气预报(METAR&TAF报告)。

可查询的气象台以黄色和红色小点在地图上表示。

将鼠标移到小点上方,可查看气象台名称。

然后点击查看天气观测和预报。

如需切换地图:点击带黑十字的绿色按钮放大地图;点击带横线的绿色按钮缩小地图;或者点击绿色箭头查看邻近地区的地图。


METAR-TAF: